Track Сибагатов Тимур

Time Latitude Longitude Accuracy (66% radius in meters) Altitude (meters) Speed (km/hour) Bearing (degrees) Battery (%) GPS flag
07:00:02 54.460932 53.535893 0 0 0 0 1 delete
07:00:01 54.460932 53.535893 0 0 0 0 1 delete
06:59:59 54.460926 53.535946 0 0 0 0 1 delete
06:59:52 54.460914 53.536152 0 0 0 0 1 delete
06:59:45 54.460906 53.536339 0 0 0 0 1 delete
06:59:38 54.460861 53.536496 0 0 0 0 1 delete
06:59:29 54.460778 53.536662 0 0 0 0 1 delete
06:59:21 54.460720 53.536822 0 0 0 0 1 delete
06:59:14 54.460680 53.536995 0 0 0 0 1 delete
06:59:07 54.460650 53.537142 0 0 0 0 1 delete
06:58:59 54.460656 53.537155 0 0 0 0 1 delete
06:58:52 54.460660 53.537156 0 0 0 0 1 delete
06:58:46 54.460665 53.537144 0 0 0 0 1 delete
06:58:37 54.460659 53.537145 0 0 0 0 1 delete
06:58:36 54.460656 53.537155 0 0 0 0 1 delete
06:58:32 54.460716 53.537380 0 0 0 0 1 delete
06:58:29 54.460831 53.537510 0 0 0 0 1 delete
06:58:24 54.460996 53.537665 0 0 0 0 1 delete
06:58:22 54.461061 53.537724 0 0 0 0 1 delete
06:58:19 54.461160 53.537810 0 0 0 0 1 delete
06:58:14 54.461294 53.537924 0 0 0 0 1 delete
06:58:12 54.461337 53.537965 0 0 0 0 1 delete
06:58:06 54.461477 53.538145 0 0 0 0 1 delete
06:58:02 54.461575 53.538255 0 0 0 0 1 delete
06:58:01 54.461608 53.538303 0 0 0 0 1 delete
06:57:57 54.461813 53.538578 0 0 0 0 1 delete
06:57:52 54.462001 53.538858 0 0 0 0 1 delete
06:57:50 54.462067 53.538933 0 0 0 0 1 delete
06:57:46 54.462176 53.539090 0 0 0 0 1 delete
06:57:42 54.462282 53.539258 0 0 0 0 1 delete
06:57:40 54.462347 53.539345 0 0 0 0 1 delete
06:57:38 54.462397 53.539446 0 0 0 0 1 delete
06:57:35 54.462470 53.539616 0 0 0 0 1 delete
06:57:31 54.462531 53.539922 0 0 0 0 1 delete
06:57:29 54.462527 53.540099 0 0 0 0 1 delete
06:57:27 54.462538 53.540308 0 0 0 0 1 delete
06:57:23 54.462462 53.540858 0 0 0 0 1 delete
06:57:19 54.462213 53.541208 0 0 0 0 1 delete
06:57:18 54.462162 53.541268 0 0 0 0 1 delete
06:57:13 54.461990 53.541342 0 0 0 0 1 delete
06:57:11 54.461939 53.541320 0 0 0 0 1 delete
06:57:07 54.461825 53.541145 0 0 0 0 1 delete
06:57:04 54.461826 53.540947 0 0 0 0 1 delete
06:56:59 54.461917 53.540749 0 0 0 0 1 delete
06:56:55 54.461985 53.540552 0 0 0 0 1 delete
06:56:51 54.462003 53.540318 0 0 0 0 1 delete
06:56:46 54.461977 53.540107 0 0 0 0 1 delete
06:56:41 54.461970 53.539953 0 0 0 0 1 delete
06:56:36 54.461910 53.539748 0 0 0 0 1 delete
06:56:34 54.461862 53.539680 0 0 0 0 1 delete